createdAt,value
2018-12-02T00:00:34.172Z,83.80
2018-12-02T00:03:03.739Z,83.90
2018-12-02T00:05:31.340Z,83.50
2018-12-02T00:07:58.870Z,83.90
2018-12-02T00:10:26.691Z,84.30
2018-12-02T00:12:54.288Z,84.20
2018-12-02T00:15:23.165Z,84.50
2018-12-02T00:17:52.079Z,83.70
2018-12-02T00:20:19.612Z,83.80
2018-12-02T00:22:47.180Z,83.90
2018-12-02T00:25:15.326Z,83.90
2018-12-02T00:27:59.586Z,83.90
2018-12-02T00:30:29.143Z,84.10
2018-12-02T00:32:56.872Z,83.70
2018-12-02T00:35:24.393Z,83.30
2018-12-02T00:37:53.917Z,83.50
2018-12-02T00:40:22.189Z,83.00
2018-12-02T00:42:51.672Z,83.50
2018-12-02T00:45:20.374Z,83.80
2018-12-02T00:47:48.007Z,83.90
2018-12-02T00:50:16.459Z,83.50
2018-12-02T00:52:45.296Z,83.70
2018-12-02T00:55:17.194Z,83.30
2018-12-02T00:57:44.744Z,83.10
2018-12-02T01:00:13.436Z,83.30
2018-12-02T01:02:41.139Z,83.20
2018-12-02T01:05:12.836Z,83.00
2018-12-02T01:07:40.430Z,82.90
2018-12-02T01:10:12.415Z,83.60
2018-12-02T01:12:40.034Z,83.10
2018-12-02T01:15:09.303Z,83.40
2018-12-02T01:17:36.816Z,83.60
2018-12-02T01:20:06.557Z,83.10
2018-12-02T01:22:34.022Z,82.80
2018-12-02T01:25:01.645Z,83.00
2018-12-02T01:27:29.137Z,83.30
2018-12-02T01:29:56.681Z,83.80
2018-12-02T01:32:24.163Z,83.50
2018-12-02T01:34:52.367Z,83.60
2018-12-02T01:37:19.896Z,83.10
2018-12-02T01:39:47.436Z,83.30
2018-12-02T01:42:14.980Z,83.90
2018-12-02T01:44:42.550Z,84.10
2018-12-02T01:47:10.090Z,84.50
2018-12-02T01:49:37.555Z,84.40
2018-12-02T01:52:05.860Z,84.90
2018-12-02T01:54:33.312Z,85.10
2018-12-02T01:57:00.940Z,85.30
2018-12-02T01:59:28.432Z,84.70
2018-12-02T02:01:55.981Z,85.10
2018-12-02T02:04:23.468Z,85.30
2018-12-02T02:06:51.010Z,85.30
2018-12-02T02:09:18.472Z,84.90
2018-12-02T02:11:46.004Z,85.00
2018-12-02T02:14:13.467Z,84.60
2018-12-02T02:16:41.068Z,84.90
2018-12-02T02:19:08.528Z,85.40
2018-12-02T02:21:36.055Z,85.40
2018-12-02T02:24:03.552Z,85.20
2018-12-02T02:26:31.131Z,85.10
2018-12-02T02:28:58.627Z,85.70
2018-12-02T02:31:26.153Z,85.60
2018-12-02T02:33:53.686Z,85.10
2018-12-02T02:36:21.125Z,85.20
2018-12-02T02:38:48.635Z,85.10
2018-12-02T02:41:16.121Z,85.60
2018-12-02T02:43:43.651Z,85.90
2018-12-02T02:46:11.096Z,85.40
2018-12-02T02:48:38.632Z,86.20
2018-12-02T02:51:06.086Z,86.30
2018-12-02T02:53:33.679Z,87.10
2018-12-02T02:56:01.300Z,87.00
2018-12-02T02:58:28.856Z,86.90
2018-12-02T03:00:56.313Z,87.40
2018-12-02T03:03:23.868Z,87.80
2018-12-02T03:05:51.328Z,87.40
2018-12-02T03:08:18.849Z,87.50
2018-12-02T03:10:46.313Z,87.60
2018-12-02T03:13:13.875Z,87.20
2018-12-02T03:15:41.469Z,87.20
2018-12-02T03:18:09.001Z,86.90
2018-12-02T03:20:36.447Z,87.00
2018-12-02T03:23:04.128Z,86.60
2018-12-02T03:25:31.626Z,86.90
2018-12-02T03:27:59.166Z,86.90
2018-12-02T03:30:26.705Z,86.40
2018-12-02T03:32:54.283Z,85.90
2018-12-02T03:35:24.735Z,86.00
2018-12-02T03:37:52.774Z,85.60
2018-12-02T03:40:22.142Z,86.00
2018-12-02T03:42:50.267Z,86.40
2018-12-02T03:45:18.715Z,86.40
2018-12-02T03:47:46.186Z,85.60
2018-12-02T03:50:17.636Z,86.20
2018-12-02T03:52:42.452Z,85.30
2018-12-02T03:55:10.047Z,85.00
2018-12-02T03:57:37.567Z,84.90
2018-12-02T04:00:36.079Z,84.90
2018-12-02T04:03:03.704Z,83.80
2018-12-02T04:05:31.247Z,84.00
2018-12-02T04:07:58.696Z,84.20
2018-12-02T04:10:26.233Z,84.10
2018-12-02T04:12:53.712Z,84.10
2018-12-02T04:15:23.155Z,84.20
2018-12-02T04:17:50.696Z,84.40
2018-12-02T04:20:18.715Z,83.90
2018-12-02T04:22:47.159Z,83.60
2018-12-02T04:25:24.643Z,83.60
2018-12-02T04:27:52.208Z,83.30
2018-12-02T04:30:20.504Z,82.10
2018-12-02T04:32:48.897Z,81.70
2018-12-02T04:35:18.264Z,81.30
2018-12-02T04:37:45.779Z,81.20
2018-12-02T04:40:13.727Z,80.10
2018-12-02T04:42:41.335Z,80.00
2018-12-02T04:45:10.017Z,80.70
2018-12-02T04:47:37.633Z,79.80
2018-12-02T04:50:11.473Z,79.70
2018-12-02T04:52:39.088Z,79.40
2018-12-02T04:55:07.495Z,79.60
2018-12-02T04:57:35.056Z,78.30
2018-12-02T05:00:02.607Z,78.30
2018-12-02T05:02:30.130Z,77.90
2018-12-02T05:04:57.608Z,77.80
2018-12-02T05:07:25.149Z,76.70
2018-12-02T05:09:52.660Z,76.00
2018-12-02T05:12:20.173Z,75.50
2018-12-02T05:14:47.604Z,75.60
2018-12-02T05:17:15.221Z,75.80
2018-12-02T05:19:42.685Z,75.50
2018-12-02T05:22:10.128Z,76.70
2018-12-02T05:24:42.884Z,77.40
2018-12-02T05:27:10.329Z,76.30
2018-12-02T05:29:37.853Z,76.90
2018-12-02T05:32:05.744Z,77.30
2018-12-02T05:34:33.303Z,75.50
2018-12-02T05:37:00.891Z,75.50
2018-12-02T05:39:28.416Z,76.00
2018-12-02T05:42:01.507Z,76.90
2018-12-02T05:44:29.046Z,75.90
2018-12-02T05:46:56.515Z,76.70
2018-12-02T05:49:24.071Z,76.50
2018-12-02T05:51:51.552Z,77.60
2018-12-02T05:54:19.177Z,77.30
2018-12-02T05:56:46.694Z,77.20
2018-12-02T05:59:14.152Z,79.40
2018-12-02T06:01:41.695Z,80.80
2018-12-02T06:04:09.152Z,81.90
2018-12-02T06:06:36.665Z,82.70
2018-12-02T06:09:07.435Z,85.60
2018-12-02T06:11:34.974Z,86.70
2018-12-02T06:14:02.446Z,87.80
2018-12-02T06:16:30.038Z,88.70
2018-12-02T06:18:57.481Z,89.60
2018-12-02T06:21:25.018Z,90.30
2018-12-02T06:23:52.451Z,90.40
2018-12-02T06:26:19.980Z,91.00
2018-12-02T06:28:47.549Z,91.80
2018-12-02T06:31:15.124Z,91.90
2018-12-02T06:33:42.669Z,92.10
2018-12-02T06:36:10.282Z,92.30
2018-12-02T06:38:37.781Z,92.50
2018-12-02T06:41:05.436Z,93.10
2018-12-02T06:43:32.997Z,93.20
2018-12-02T06:46:00.803Z,93.70
2018-12-02T06:48:28.285Z,93.80
2018-12-02T06:50:55.848Z,94.00
2018-12-02T06:53:23.384Z,94.40
2018-12-02T06:55:53.994Z,94.60
2018-12-02T06:58:36.545Z,95.20
2018-12-02T07:01:12.044Z,95.30
2018-12-02T07:03:47.219Z,95.20
2018-12-02T07:06:14.840Z,95.30
2018-12-02T07:08:42.378Z,95.30
2018-12-02T07:11:09.901Z,95.20
2018-12-02T07:13:37.371Z,95.30
2018-12-02T07:16:05.045Z,95.20
2018-12-02T07:18:37.147Z,95.20
2018-12-02T07:21:08.896Z,95.00
2018-12-02T07:23:37.173Z,94.90
2018-12-02T07:26:05.445Z,95.00
2018-12-02T07:28:33.012Z,95.20
2018-12-02T07:31:00.965Z,95.30
2018-12-02T07:33:28.575Z,95.60
2018-12-02T07:35:56.987Z,95.60
2018-12-02T07:38:31.268Z,95.90
2018-12-02T07:40:58.877Z,95.80
2018-12-02T07:43:26.401Z,95.90
2018-12-02T07:45:53.845Z,96.20
2018-12-02T07:48:21.436Z,96.20
2018-12-02T07:50:48.927Z,96.30
2018-12-02T07:53:16.496Z,96.50
2018-12-02T07:55:44.041Z,96.60
2018-12-02T07:58:15.104Z,96.60
2018-12-02T08:00:42.927Z,96.70
2018-12-02T08:03:10.407Z,96.90
2018-12-02T08:05:37.956Z,97.00
2018-12-02T08:08:05.504Z,97.10
2018-12-02T08:10:33.071Z,97.30
2018-12-02T08:13:00.900Z,97.30
2018-12-02T08:15:28.537Z,97.50
2018-12-02T08:17:56.019Z,97.60
2018-12-02T08:20:23.583Z,97.80
2018-12-02T08:22:51.685Z,98.00
2018-12-02T08:25:19.069Z,98.00
2018-12-02T08:27:46.882Z,98.00
2018-12-02T08:30:16.728Z,97.70
2018-12-02T08:32:44.323Z,97.90
2018-12-02T08:35:12.991Z,97.90
2018-12-02T08:37:41.129Z,98.10
2018-12-02T08:40:10.002Z,98.10
2018-12-02T08:42:37.660Z,98.20
2018-12-02T08:45:08.482Z,98.30
2018-12-02T08:47:36.023Z,98.60
2018-12-02T08:50:04.636Z,98.50
2018-12-02T08:52:32.186Z,98.50
2018-12-02T08:54:59.637Z,98.80
2018-12-02T08:57:27.201Z,98.60
2018-12-02T08:59:54.734Z,98.90
2018-12-02T09:02:22.324Z,98.90
2018-12-02T09:04:49.846Z,99.00
2018-12-02T09:07:17.400Z,99.20
2018-12-02T09:09:44.890Z,99.30
2018-12-02T09:12:12.499Z,99.50
2018-12-02T09:14:40.015Z,99.40
2018-12-02T09:17:07.684Z,99.50
2018-12-02T09:19:35.188Z,99.80
2018-12-02T09:22:02.764Z,99.90
2018-12-02T09:24:30.318Z,99.90
2018-12-02T09:26:57.787Z,99.90
2018-12-02T09:29:25.384Z,99.90
2018-12-02T09:31:52.902Z,99.90
2018-12-02T09:34:20.506Z,99.50
2018-12-02T09:36:47.983Z,99.60
2018-12-02T09:39:18.415Z,99.50
2018-12-02T09:41:43.127Z,99.50
2018-12-02T09:44:10.701Z,99.50
2018-12-02T09:46:38.279Z,99.70
2018-12-02T09:49:05.853Z,99.90
2018-12-02T09:51:33.430Z,99.90
2018-12-02T09:54:01.065Z,99.90
2018-12-02T09:56:28.580Z,99.90
2018-12-02T09:58:56.216Z,99.90
2018-12-02T10:01:23.713Z,99.90
2018-12-02T10:03:51.312Z,99.90
2018-12-02T10:06:18.864Z,99.90
2018-12-02T10:08:46.420Z,99.90
2018-12-02T10:11:14.076Z,99.90
2018-12-02T10:13:41.608Z,99.90
2018-12-02T10:16:09.316Z,99.90
2018-12-02T10:18:36.824Z,99.90
2018-12-02T10:21:04.633Z,99.90
2018-12-02T10:23:32.170Z,99.90
2018-12-02T10:25:59.755Z,99.90
2018-12-02T10:28:27.238Z,99.90
2018-12-02T10:30:54.821Z,99.90
2018-12-02T10:33:22.336Z,99.90
2018-12-02T10:35:50.065Z,99.90
2018-12-02T10:38:17.536Z,99.90
2018-12-02T10:40:45.204Z,99.90
2018-12-02T10:43:12.800Z,99.90
2018-12-02T10:45:40.318Z,99.90
2018-12-02T10:48:10.186Z,99.90
2018-12-02T10:50:37.754Z,99.90
2018-12-02T10:53:21.244Z,99.90
2018-12-02T10:55:52.166Z,99.90
2018-12-02T10:58:21.050Z,99.90
2018-12-02T11:00:55.263Z,99.90
2018-12-02T11:03:22.783Z,99.90
2018-12-02T11:05:50.433Z,99.90
2018-12-02T11:08:18.009Z,99.90
2018-12-02T11:10:45.566Z,99.90
2018-12-02T11:13:13.157Z,99.90
2018-12-02T11:15:40.853Z,99.90
2018-12-02T11:18:10.087Z,99.90
2018-12-02T11:20:37.737Z,99.90
2018-12-02T11:23:06.324Z,99.90
2018-12-02T11:25:33.906Z,99.90
2018-12-02T11:28:01.509Z,99.90
2018-12-02T11:30:29.025Z,99.90
2018-12-02T11:32:56.692Z,99.90
2018-12-02T11:35:24.224Z,99.90
2018-12-02T11:37:51.881Z,99.90
2018-12-02T11:40:20.314Z,99.90
2018-12-02T11:42:48.650Z,99.90
2018-12-02T11:45:16.279Z,99.90
2018-12-02T11:47:45.919Z,99.90
2018-12-02T11:50:16.390Z,99.90
2018-12-02T11:52:45.244Z,99.90
2018-12-02T11:55:29.285Z,99.70
2018-12-02T11:57:58.990Z,99.60
2018-12-02T12:00:33.457Z,99.40
2018-12-02T12:03:01.087Z,99.40
2018-12-02T12:05:28.617Z,99.90
2018-12-02T12:07:56.202Z,99.80
2018-12-02T12:10:24.777Z,99.50
2018-12-02T12:12:53.367Z,99.70
2018-12-02T12:15:22.859Z,98.80
2018-12-02T12:17:50.469Z,98.90
2018-12-02T12:20:49.128Z,98.70
2018-12-02T12:23:18.103Z,98.50
2018-12-02T12:25:45.713Z,98.60
2018-12-02T12:28:13.258Z,98.60
2018-12-02T12:30:40.859Z,98.90
2018-12-02T12:33:09.258Z,98.60
2018-12-02T12:35:38.687Z,98.30
2018-12-02T12:38:06.571Z,98.10
2018-12-02T12:40:35.434Z,97.70
2018-12-02T12:43:08.200Z,97.80
2018-12-02T12:45:35.779Z,97.10
2018-12-02T12:48:03.314Z,97.40
2018-12-02T12:50:30.904Z,97.20
2018-12-02T12:52:58.524Z,96.50
2018-12-02T12:55:26.079Z,96.30
2018-12-02T12:57:53.603Z,96.20
2018-12-02T13:00:22.088Z,95.90
2018-12-02T13:02:49.765Z,95.80
2018-12-02T13:05:18.705Z,96.20
2018-12-02T13:07:46.334Z,95.80
2018-12-02T13:10:14.806Z,96.00
2018-12-02T13:12:42.445Z,96.20
2018-12-02T13:15:12.021Z,96.10
2018-12-02T13:17:39.773Z,95.90
2018-12-02T13:20:17.804Z,95.50
2018-12-02T13:22:45.440Z,95.40
2018-12-02T13:25:14.276Z,95.50
2018-12-02T13:27:42.956Z,95.60
2018-12-02T13:30:12.772Z,95.50
2018-12-02T13:32:40.356Z,95.40
2018-12-02T13:35:08.787Z,95.40
2018-12-02T13:37:36.316Z,95.70
2018-12-02T13:40:20.431Z,95.70
2018-12-02T13:42:52.294Z,95.80
2018-12-02T13:45:21.491Z,95.70
2018-12-02T13:47:49.029Z,95.60
2018-12-02T13:50:17.586Z,95.80
2018-12-02T13:52:45.821Z,95.90
2018-12-02T13:55:15.598Z,95.80
2018-12-02T13:57:43.244Z,95.80
2018-12-02T14:00:16.134Z,96.10
2018-12-02T14:02:44.855Z,96.10
2018-12-02T14:05:12.501Z,96.20
2018-12-02T14:07:40.060Z,96.30
2018-12-02T14:10:13.441Z,96.50
2018-12-02T14:12:44.551Z,96.30
2018-12-02T14:15:33.796Z,96.20
2018-12-02T14:18:05.939Z,96.10
2018-12-02T14:20:33.508Z,96.20
2018-12-02T14:23:01.119Z,96.20
2018-12-02T14:25:28.641Z,96.10
2018-12-02T14:27:56.268Z,96.00
2018-12-02T14:30:23.805Z,96.30
2018-12-02T14:32:51.424Z,96.40
2018-12-02T14:35:18.945Z,96.50
2018-12-02T14:37:46.568Z,96.50
2018-12-02T14:40:14.367Z,96.40
2018-12-02T14:42:43.236Z,96.40
2018-12-02T14:45:16.552Z,96.30
2018-12-02T14:47:44.143Z,96.30
2018-12-02T14:50:13.844Z,96.10
2018-12-02T14:52:41.781Z,96.40
2018-12-02T14:55:12.757Z,96.30
2018-12-02T14:57:40.381Z,96.40
2018-12-02T15:00:12.528Z,96.40
2018-12-02T15:05:13.859Z,96.20
2018-12-02T15:07:42.629Z,96.50
2018-12-02T15:10:15.523Z,96.20
2018-12-02T15:12:43.916Z,96.10
2018-12-02T15:15:13.062Z,96.10
2018-12-02T15:17:40.804Z,96.10
2018-12-02T15:20:12.259Z,96.10
2018-12-02T15:22:39.833Z,96.40
2018-12-02T15:25:09.165Z,96.80
2018-12-02T15:27:36.699Z,97.10
2018-12-02T15:30:17.930Z,97.30
2018-12-02T15:32:47.961Z,97.50
2018-12-02T15:35:15.680Z,97.50
2018-12-02T15:37:43.279Z,97.60
2018-12-02T15:40:12.156Z,97.70
2018-12-02T15:42:53.218Z,97.70
2018-12-02T15:45:21.898Z,97.70
2018-12-02T15:47:49.449Z,98.00
2018-12-02T15:50:21.127Z,98.00
2018-12-02T15:52:48.772Z,97.80
2018-12-02T15:55:23.694Z,97.90
2018-12-02T15:57:51.603Z,97.90
2018-12-02T16:00:24.367Z,98.00
2018-12-02T16:02:51.950Z,98.00
2018-12-02T16:05:19.672Z,98.10
2018-12-02T16:07:47.303Z,98.10
2018-12-02T16:10:14.922Z,98.20
2018-12-02T16:12:43.792Z,98.10
2018-12-02T16:15:14.457Z,98.10
2018-12-02T16:17:42.205Z,98.10
2018-12-02T16:20:17.087Z,98.20
2018-12-02T16:22:44.707Z,98.10
2018-12-02T16:25:12.312Z,98.30
2018-12-02T16:27:39.892Z,98.20
2018-12-02T16:30:15.224Z,98.20
2018-12-02T16:32:46.894Z,98.40
2018-12-02T16:35:15.105Z,98.50
2018-12-02T16:37:43.671Z,98.70
2018-12-02T16:40:14.390Z,98.70
2018-12-02T16:42:41.977Z,98.90
2018-12-02T16:45:12.671Z,99.10
2018-12-02T16:47:40.787Z,99.10
2018-12-02T16:50:19.767Z,99.10
2018-12-02T16:52:47.450Z,99.00
2018-12-02T16:55:17.271Z,98.90
2018-12-02T16:57:50.569Z,98.90
2018-12-02T17:00:21.264Z,98.90
2018-12-02T17:02:48.892Z,99.10
2018-12-02T17:05:16.391Z,99.00
2018-12-02T17:07:44.451Z,99.10
2018-12-02T17:10:14.612Z,99.10
2018-12-02T17:12:48.497Z,99.20
2018-12-02T17:15:16.145Z,99.20
2018-12-02T17:17:43.685Z,99.10
2018-12-02T17:20:12.934Z,99.10
2018-12-02T17:22:40.535Z,99.30
2018-12-02T17:25:09.722Z,99.40
2018-12-02T17:27:37.236Z,99.40
2018-12-02T17:31:09.976Z,99.30
2018-12-02T17:33:37.494Z,99.30
2018-12-02T17:36:05.497Z,99.20
2018-12-02T17:38:33.033Z,99.30
2018-12-02T17:41:00.954Z,99.30
2018-12-02T17:43:28.488Z,99.40
2018-12-02T17:45:56.031Z,99.50
2018-12-02T17:48:23.534Z,99.40
2018-12-02T17:50:51.192Z,99.40
2018-12-02T17:53:18.804Z,99.30
2018-12-02T17:55:46.428Z,99.10
2018-12-02T17:58:13.945Z,99.10
2018-12-02T18:00:41.551Z,99.20
2018-12-02T18:03:11.078Z,99.20
2018-12-02T18:05:41.049Z,99.20
2018-12-02T18:08:08.667Z,99.20
2018-12-02T18:10:36.188Z,99.00
2018-12-02T18:13:04.230Z,99.00
2018-12-02T18:15:31.784Z,99.00
2018-12-02T18:17:59.400Z,98.90
2018-12-02T18:20:26.914Z,99.10
2018-12-02T18:22:54.492Z,99.60
2018-12-02T18:25:22.011Z,99.90
2018-12-02T18:27:49.660Z,99.90
2018-12-02T18:30:25.859Z,99.90
2018-12-02T18:32:55.676Z,99.90
2018-12-02T18:36:02.119Z,99.90
2018-12-02T18:38:31.760Z,99.90
2018-12-02T18:41:07.345Z,99.90
2018-12-02T18:43:34.940Z,99.90
2018-12-02T18:46:02.566Z,99.90
2018-12-02T18:48:30.254Z,99.90
2018-12-02T18:50:57.804Z,99.90
2018-12-02T18:53:25.485Z,99.90
2018-12-02T18:55:53.108Z,99.90
2018-12-02T18:58:20.798Z,99.90
2018-12-02T19:00:48.529Z,99.90
2018-12-02T19:03:17.835Z,99.90
2018-12-02T19:05:46.496Z,99.90
2018-12-02T19:08:14.061Z,99.90
2018-12-02T19:10:42.329Z,99.90
2018-12-02T19:13:09.869Z,99.90
2018-12-02T19:15:37.478Z,99.90
2018-12-02T19:18:05.217Z,99.90
2018-12-02T19:20:32.854Z,99.90
2018-12-02T19:23:03.254Z,99.90
2018-12-02T19:25:30.877Z,99.90
2018-12-02T19:27:58.436Z,99.90
2018-12-02T19:30:26.050Z,99.90
2018-12-02T19:32:53.841Z,99.90
2018-12-02T19:35:28.278Z,99.90
2018-12-02T19:37:59.969Z,99.90
2018-12-02T19:40:27.649Z,99.90
2018-12-02T19:42:55.216Z,99.90
2018-12-02T19:45:22.739Z,99.90
2018-12-02T19:47:50.303Z,99.90
2018-12-02T19:50:19.231Z,99.90
2018-12-02T19:52:47.691Z,99.90
2018-12-02T19:55:15.449Z,99.90
2018-12-02T19:57:46.349Z,99.90
2018-12-02T20:00:22.451Z,99.90
2018-12-02T20:02:50.061Z,99.90
2018-12-02T20:05:17.669Z,99.90
2018-12-02T20:07:47.172Z,99.90
2018-12-02T20:10:15.968Z,99.90
2018-12-02T20:12:43.584Z,99.90
2018-12-02T20:15:13.388Z,99.90
2018-12-02T20:17:41.149Z,99.90
2018-12-02T20:20:20.705Z,99.90
2018-12-02T20:22:48.364Z,99.90
2018-12-02T20:25:16.374Z,99.90
2018-12-02T20:27:43.964Z,99.90
2018-12-02T20:30:15.071Z,99.90
2018-12-02T20:32:42.678Z,99.90
2018-12-02T20:35:10.726Z,99.90
2018-12-02T20:37:38.544Z,99.90
2018-12-02T20:40:16.973Z,99.90
2018-12-02T20:42:45.256Z,99.90
2018-12-02T20:45:14.008Z,99.90
2018-12-02T20:47:41.535Z,99.90
2018-12-02T20:50:13.431Z,99.90
2018-12-02T20:52:41.019Z,99.90
2018-12-02T20:55:19.053Z,99.90
2018-12-02T20:57:46.972Z,99.90
2018-12-02T21:00:17.559Z,99.90
2018-12-02T21:02:49.453Z,99.90
2018-12-02T21:05:27.113Z,99.90
2018-12-02T21:07:54.678Z,99.90
2018-12-02T21:10:22.320Z,99.90
2018-12-02T21:12:49.894Z,99.90
2018-12-02T21:15:17.534Z,99.90
2018-12-02T21:17:45.064Z,99.90
2018-12-02T21:20:12.962Z,99.90
2018-12-02T21:22:40.535Z,99.90
2018-12-02T21:25:10.857Z,99.90
2018-12-02T21:27:38.445Z,99.90
2018-12-02T21:30:10.361Z,99.90
2018-12-02T21:32:37.917Z,99.90
2018-12-02T21:35:05.502Z,99.90
2018-12-02T21:37:33.100Z,99.90
2018-12-02T21:40:00.829Z,99.90
2018-12-02T21:42:28.416Z,99.90
2018-12-02T21:44:55.952Z,99.90
2018-12-02T21:47:23.536Z,99.90
2018-12-02T21:49:51.068Z,99.90
2018-12-02T21:52:18.682Z,99.90
2018-12-02T21:54:46.206Z,99.90
2018-12-02T21:57:13.834Z,99.90
2018-12-02T21:59:41.383Z,99.90
2018-12-02T22:02:08.912Z,99.90
2018-12-02T22:04:36.519Z,99.90
2018-12-02T22:07:04.201Z,99.90
2018-12-02T22:09:31.783Z,99.90
2018-12-02T22:11:59.293Z,99.90
2018-12-02T22:14:26.840Z,99.90
2018-12-02T22:16:54.440Z,99.90
2018-12-02T22:19:22.012Z,99.90
2018-12-02T22:21:49.529Z,99.90
2018-12-02T22:24:17.105Z,99.90
2018-12-02T22:26:44.595Z,99.90
2018-12-02T22:29:12.188Z,99.90
2018-12-02T22:31:39.775Z,99.90
2018-12-02T22:34:07.969Z,99.90
2018-12-02T22:36:35.549Z,99.90
2018-12-02T22:39:04.143Z,99.90
2018-12-02T22:41:31.671Z,99.90
2018-12-02T22:43:59.168Z,99.90
2018-12-02T22:46:26.746Z,99.90
2018-12-02T22:48:54.255Z,99.90
2018-12-02T22:51:21.826Z,99.90
2018-12-02T22:53:49.352Z,99.90
2018-12-02T22:56:16.886Z,99.90
2018-12-02T22:58:44.348Z,99.90
2018-12-02T23:01:17.662Z,99.90
2018-12-02T23:03:45.163Z,99.90
2018-12-02T23:06:12.717Z,99.90
2018-12-02T23:08:40.404Z,99.90
2018-12-02T23:11:07.936Z,99.90
2018-12-02T23:13:35.438Z,99.90
2018-12-02T23:16:03.185Z,99.90
2018-12-02T23:18:30.659Z,99.90
2018-12-02T23:20:58.131Z,99.90
2018-12-02T23:23:25.672Z,99.90
2018-12-02T23:25:53.172Z,99.90
2018-12-02T23:28:20.740Z,99.90
2018-12-02T23:30:48.242Z,99.90
2018-12-02T23:33:15.811Z,99.90
2018-12-02T23:35:43.331Z,99.90
2018-12-02T23:38:10.918Z,99.90
2018-12-02T23:40:38.404Z,99.90
2018-12-02T23:43:05.993Z,99.90
2018-12-02T23:45:33.477Z,99.90
2018-12-02T23:48:01.065Z,99.90
2018-12-02T23:50:28.554Z,99.90
2018-12-02T23:52:56.232Z,99.90
2018-12-02T23:55:23.701Z,99.90
2018-12-02T23:57:51.281Z,99.90
